createdAt,value
2023-03-19T00:01:16.808Z,97618.03
2023-03-19T00:03:49.844Z,97613.47
2023-03-19T00:06:23.838Z,97620.16
2023-03-19T00:08:56.874Z,97619.19
2023-03-19T00:11:30.020Z,97617.69
2023-03-19T00:14:03.286Z,97618.19
2023-03-19T00:16:37.722Z,97623.13
2023-03-19T00:19:10.902Z,97618.72
2023-03-19T00:21:44.036Z,97624.69
2023-03-19T00:24:17.528Z,97634.25
2023-03-19T00:26:51.015Z,97629.38
2023-03-19T00:29:24.357Z,97635.97
2023-03-19T00:31:58.728Z,97634.97
2023-03-19T00:34:31.830Z,97646.53
2023-03-19T00:37:05.276Z,97631.81
2023-03-19T00:39:38.519Z,97631.13
2023-03-19T00:42:12.002Z,97625.94
2023-03-19T00:44:45.096Z,97627.88
2023-03-19T00:47:19.683Z,97639.94
2023-03-19T00:49:52.717Z,97642.06
2023-03-19T00:52:25.828Z,97647.06
2023-03-19T00:54:58.879Z,97647.00
2023-03-19T00:57:31.953Z,97653.53
2023-03-19T01:00:06.370Z,97650.31
2023-03-19T01:02:40.825Z,97646.81
2023-03-19T01:05:13.998Z,97652.09
2023-03-19T01:07:47.203Z,97656.28
2023-03-19T01:10:20.598Z,97654.81
2023-03-19T01:12:53.825Z,97659.13
2023-03-19T01:15:26.920Z,97651.59
2023-03-19T01:18:01.340Z,97647.53
2023-03-19T01:20:34.603Z,97656.94
2023-03-19T01:23:08.606Z,97658.72
2023-03-19T01:25:41.673Z,97657.03
2023-03-19T01:28:14.787Z,97651.25
2023-03-19T01:30:48.055Z,97654.44
2023-03-19T01:33:25.462Z,97659.00
2023-03-19T01:35:59.588Z,97658.47
2023-03-19T01:38:33.280Z,97652.91
2023-03-19T01:41:07.554Z,97661.16
2023-03-19T01:43:40.708Z,97660.16
2023-03-19T01:46:24.308Z,97659.59
2023-03-19T01:49:01.434Z,97657.72
2023-03-19T01:51:41.035Z,97655.59
2023-03-19T01:54:17.966Z,97664.91
2023-03-19T01:56:54.759Z,97663.53
2023-03-19T01:59:31.718Z,97660.97
2023-03-19T02:02:11.054Z,97670.56
2023-03-19T02:04:48.535Z,97674.88
2023-03-19T02:07:22.457Z,97683.06
2023-03-19T02:09:55.966Z,97680.03
2023-03-19T02:12:29.332Z,97680.28
2023-03-19T02:15:02.452Z,97689.53
2023-03-19T02:17:35.952Z,97684.25
2023-03-19T02:20:19.377Z,97685.50
2023-03-19T02:23:04.146Z,97690.44
2023-03-19T02:25:44.615Z,97694.47
2023-03-19T02:28:22.276Z,97689.19
2023-03-19T02:30:55.536Z,97697.44
2023-03-19T02:33:28.741Z,97692.13
2023-03-19T02:36:04.462Z,97699.88
2023-03-19T02:38:38.924Z,97702.13
2023-03-19T02:41:12.430Z,97700.38
2023-03-19T02:43:47.002Z,97701.69
2023-03-19T02:46:20.101Z,97704.72
2023-03-19T02:48:53.715Z,97702.56
2023-03-19T02:51:27.266Z,97710.03
2023-03-19T02:54:00.940Z,97715.50
2023-03-19T02:56:34.096Z,97718.72
2023-03-19T02:59:09.454Z,97726.06
2023-03-19T03:01:42.673Z,97726.84
2023-03-19T03:04:16.738Z,97727.66
2023-03-19T03:06:49.762Z,97731.75
2023-03-19T03:09:22.811Z,97732.38
2023-03-19T03:11:55.964Z,97730.00
2023-03-19T03:14:30.715Z,97744.69
2023-03-19T03:17:03.755Z,97736.47
2023-03-19T03:19:37.435Z,97738.13
2023-03-19T03:22:10.951Z,97742.81
2023-03-19T03:24:44.175Z,97744.56
2023-03-19T03:27:17.320Z,97756.63
2023-03-19T03:29:52.140Z,97764.00
2023-03-19T03:32:25.333Z,97758.22
2023-03-19T03:34:58.467Z,97759.19
2023-03-19T03:37:31.874Z,97748.78
2023-03-19T03:40:09.020Z,97757.72
2023-03-19T03:42:42.058Z,97759.97
2023-03-19T03:45:16.700Z,97762.91
2023-03-19T03:47:49.746Z,97774.38
2023-03-19T03:50:22.785Z,97785.63
2023-03-19T03:52:55.933Z,97781.41
2023-03-19T03:55:29.239Z,97783.84
2023-03-19T03:58:02.927Z,97782.09
2023-03-19T04:00:37.414Z,97783.41
2023-03-19T04:03:10.530Z,97783.47
2023-03-19T04:05:44.548Z,97783.41
2023-03-19T04:08:18.023Z,97781.41
2023-03-19T04:10:51.180Z,97789.97
2023-03-19T04:13:24.283Z,97783.97
2023-03-19T04:15:58.653Z,97788.19
2023-03-19T04:18:31.695Z,97788.09
2023-03-19T04:21:05.622Z,97782.09
2023-03-19T04:23:38.655Z,97779.78
2023-03-19T04:26:12.258Z,97777.00
2023-03-19T04:28:45.696Z,97777.72
2023-03-19T04:31:20.129Z,97771.31
2023-03-19T04:33:53.456Z,97772.28
2023-03-19T04:36:26.583Z,97762.50
2023-03-19T04:38:59.741Z,97759.94
2023-03-19T04:41:33.151Z,97748.84
2023-03-19T04:44:06.341Z,97758.19
2023-03-19T04:46:40.817Z,97748.56
2023-03-19T04:49:14.247Z,97750.44
2023-03-19T04:51:47.391Z,97750.16
2023-03-19T04:54:20.509Z,97754.56
2023-03-19T04:56:53.978Z,97763.50
2023-03-19T04:59:27.293Z,97763.31
2023-03-19T05:02:01.667Z,97768.59
2023-03-19T05:04:34.910Z,97772.22
2023-03-19T05:07:08.429Z,97774.56
2023-03-19T05:09:43.166Z,97772.94
2023-03-19T05:12:16.249Z,97774.69
2023-03-19T05:14:49.370Z,97768.78
2023-03-19T05:17:23.721Z,97774.19
2023-03-19T05:19:57.090Z,97776.06
2023-03-19T05:22:30.110Z,97784.66
2023-03-19T05:25:03.146Z,97789.97
2023-03-19T05:27:36.234Z,97790.16
2023-03-19T05:30:11.108Z,97792.78
2023-03-19T05:32:47.085Z,97804.03
2023-03-19T05:35:20.305Z,97801.50
2023-03-19T05:37:53.396Z,97804.47
2023-03-19T05:40:26.717Z,97801.13
2023-03-19T05:42:59.785Z,97809.56
2023-03-19T05:45:32.848Z,97813.75
2023-03-19T05:48:09.003Z,97809.56
2023-03-19T05:50:42.533Z,97822.19
2023-03-19T05:53:15.679Z,97822.88
2023-03-19T05:55:48.728Z,97811.69
2023-03-19T05:58:21.968Z,97820.13
2023-03-19T06:00:56.532Z,97826.97
2023-03-19T06:03:30.937Z,97829.53
2023-03-19T06:06:04.190Z,97829.13
2023-03-19T06:08:37.461Z,97835.59
2023-03-19T06:11:10.880Z,97829.44
2023-03-19T06:13:44.404Z,97834.53
2023-03-19T06:16:17.597Z,97840.00
2023-03-19T06:18:52.020Z,97844.25
2023-03-19T06:21:29.448Z,97844.81
2023-03-19T06:24:02.475Z,97842.97
2023-03-19T06:26:35.861Z,97841.50
2023-03-19T06:29:08.993Z,97843.03
2023-03-19T06:31:42.054Z,97840.91
2023-03-19T06:34:16.588Z,97850.81
2023-03-19T06:36:49.601Z,97848.47
2023-03-19T06:39:22.947Z,97846.31
2023-03-19T06:41:56.014Z,97849.13
2023-03-19T06:44:29.136Z,97848.63
2023-03-19T06:47:02.183Z,97842.78
2023-03-19T06:49:36.553Z,97842.97
2023-03-19T06:52:09.623Z,97847.75
2023-03-19T06:54:42.670Z,97845.41
2023-03-19T06:57:15.822Z,97851.09
2023-03-19T06:59:48.894Z,97847.00
2023-03-19T07:02:22.227Z,97853.34
2023-03-19T07:04:56.613Z,97851.28
2023-03-19T07:07:29.773Z,97851.88
2023-03-19T07:10:02.949Z,97857.53
2023-03-19T07:12:36.202Z,97863.00
2023-03-19T07:15:10.023Z,97859.19
2023-03-19T07:17:44.841Z,97868.47
2023-03-19T07:20:19.705Z,97863.16
2023-03-19T07:22:52.908Z,97877.97
2023-03-19T07:25:26.035Z,97873.56
2023-03-19T07:27:59.150Z,97871.81
2023-03-19T07:30:32.996Z,97872.06
2023-03-19T07:33:07.333Z,97872.72
2023-03-19T07:35:42.067Z,97878.44
2023-03-19T07:38:15.735Z,97875.28
2023-03-19T07:41:01.470Z,97879.59
2023-03-19T07:43:35.965Z,97887.81
2023-03-19T07:46:09.052Z,97879.88
2023-03-19T07:48:42.158Z,97885.06
2023-03-19T07:51:16.550Z,97881.47
2023-03-19T07:53:50.167Z,97883.53
2023-03-19T07:56:23.296Z,97876.19
2023-03-19T07:58:56.449Z,97874.09
2023-03-19T08:01:29.477Z,97872.88
2023-03-19T08:04:02.559Z,97868.81
2023-03-19T08:06:38.460Z,97867.75
2023-03-19T08:09:11.888Z,97865.81
2023-03-19T08:11:44.884Z,97866.56
2023-03-19T08:14:22.438Z,97866.13
2023-03-19T08:16:55.572Z,97863.91
2023-03-19T08:19:28.808Z,97870.06
2023-03-19T08:22:03.286Z,97876.66
2023-03-19T08:24:36.530Z,97873.00
2023-03-19T08:27:10.128Z,97866.53
2023-03-19T08:29:43.166Z,97868.09
2023-03-19T08:32:16.335Z,97871.91
2023-03-19T08:34:49.866Z,97873.22
2023-03-19T08:37:24.326Z,97873.28
2023-03-19T08:39:57.482Z,97870.81
2023-03-19T08:42:30.628Z,97866.91
2023-03-19T08:45:03.760Z,97869.19
2023-03-19T08:47:36.985Z,97867.97
2023-03-19T08:50:12.205Z,97873.72
2023-03-19T08:52:46.802Z,97868.00
2023-03-19T08:55:19.891Z,97867.34
2023-03-19T08:57:52.985Z,97873.50
2023-03-19T09:00:26.282Z,97874.25
2023-03-19T09:02:59.378Z,97870.09
2023-03-19T09:05:32.374Z,97873.72
2023-03-19T09:08:07.577Z,97879.50
2023-03-19T09:10:40.996Z,97880.97
2023-03-19T09:13:14.012Z,97874.28
2023-03-19T09:15:47.926Z,97878.25
2023-03-19T09:18:23.990Z,97879.84
2023-03-19T09:20:57.150Z,97881.63
2023-03-19T09:23:31.531Z,97887.53
2023-03-19T09:26:04.878Z,97880.38
2023-03-19T09:28:38.070Z,97879.28
2023-03-19T09:31:11.850Z,97881.47
2023-03-19T09:33:45.044Z,97869.16
2023-03-19T09:36:18.846Z,97874.00
2023-03-19T09:38:53.397Z,97876.56
2023-03-19T09:41:36.922Z,97879.19
2023-03-19T09:44:14.585Z,97876.53
2023-03-19T09:46:54.864Z,97876.97
2023-03-19T09:49:32.504Z,97872.56
2023-03-19T09:52:19.194Z,97873.53
2023-03-19T09:54:56.636Z,97857.66
2023-03-19T09:57:29.981Z,97859.88
2023-03-19T10:00:06.744Z,97852.66
2023-03-19T10:02:43.883Z,97857.19
2023-03-19T10:05:25.490Z,97853.34
2023-03-19T10:08:27.772Z,97850.06
2023-03-19T10:11:31.731Z,97847.50
2023-03-19T10:14:23.143Z,97850.75
2023-03-19T10:17:00.327Z,97845.84
2023-03-19T10:19:41.919Z,97841.63
2023-03-19T10:22:20.628Z,97846.00
2023-03-19T10:24:55.858Z,97840.19
2023-03-19T10:27:30.505Z,97844.38
2023-03-19T10:30:03.624Z,97831.47
2023-03-19T10:32:43.033Z,97839.44
2023-03-19T10:35:23.208Z,97834.09
2023-03-19T10:37:56.221Z,97839.19
2023-03-19T10:40:39.815Z,97834.69
2023-03-19T10:43:21.564Z,97831.59
2023-03-19T10:45:54.605Z,97822.91
2023-03-19T10:48:29.176Z,97815.78
2023-03-19T10:51:05.930Z,97818.94
2023-03-19T10:53:41.752Z,97816.81
2023-03-19T10:56:23.049Z,97803.91
2023-03-19T10:59:06.879Z,97807.00
2023-03-19T11:01:42.885Z,97801.53
2023-03-19T11:04:20.891Z,97810.25
2023-03-19T11:06:55.286Z,97796.00
2023-03-19T11:09:35.774Z,97801.03
2023-03-19T11:12:18.853Z,97800.88
2023-03-19T11:14:55.409Z,97796.72
2023-03-19T11:17:38.383Z,97796.72
2023-03-19T11:20:24.676Z,97795.97
2023-03-19T11:23:02.195Z,97798.03
2023-03-19T11:25:40.105Z,97786.88
2023-03-19T11:28:15.490Z,97789.56
2023-03-19T11:30:58.306Z,97787.47
2023-03-19T11:34:02.386Z,97775.50
2023-03-19T11:36:44.149Z,97779.47
2023-03-19T11:39:28.528Z,97782.06
2023-03-19T11:42:36.935Z,97782.06
2023-03-19T11:45:20.696Z,97775.22
2023-03-19T11:48:12.361Z,97776.28
2023-03-19T11:50:52.322Z,97771.16
2023-03-19T11:53:29.531Z,97769.50
2023-03-19T11:56:10.809Z,97761.13
2023-03-19T11:59:14.466Z,97763.50
2023-03-19T12:02:32.973Z,97758.06
2023-03-19T12:05:32.952Z,97749.91
2023-03-19T12:08:20.885Z,97753.50
2023-03-19T12:11:05.142Z,97746.94
2023-03-19T12:14:00.892Z,97741.78
2023-03-19T12:16:51.111Z,97747.38
2023-03-19T12:19:43.068Z,97736.38
2023-03-19T12:22:30.259Z,97735.03
2023-03-19T12:25:27.211Z,97732.50
2023-03-19T12:28:11.803Z,97735.22
2023-03-19T12:30:51.448Z,97737.94
2023-03-19T12:33:41.153Z,97730.13
2023-03-19T12:36:22.264Z,97729.56
2023-03-19T12:39:02.969Z,97723.16
2023-03-19T12:41:43.809Z,97719.06
2023-03-19T12:44:24.472Z,97725.06
2023-03-19T12:47:02.275Z,97717.53
2023-03-19T12:49:40.466Z,97726.81
2023-03-19T12:52:22.409Z,97728.50
2023-03-19T12:55:04.614Z,97718.28
2023-03-19T12:57:44.917Z,97721.38
2023-03-19T13:00:27.323Z,97717.53
2023-03-19T13:03:08.654Z,97707.31
2023-03-19T13:05:46.227Z,97707.94
2023-03-19T13:08:29.013Z,97705.28
2023-03-19T13:11:07.765Z,97704.72
2023-03-19T13:13:49.514Z,97696.88
2023-03-19T13:16:37.605Z,97703.84
2023-03-19T13:19:20.242Z,97701.31
2023-03-19T13:21:56.774Z,97699.25
2023-03-19T13:24:32.793Z,97691.28
2023-03-19T13:27:10.742Z,97697.25
2023-03-19T13:30:01.858Z,97694.28
2023-03-19T13:32:42.404Z,97692.84
2023-03-19T13:35:38.912Z,97687.59
2023-03-19T13:38:22.678Z,97688.03
2023-03-19T13:40:57.579Z,97681.03
2023-03-19T13:43:56.438Z,97680.91
2023-03-19T13:46:40.839Z,97684.66
2023-03-19T13:49:29.648Z,97687.94
2023-03-19T13:52:48.393Z,97683.44
2023-03-19T13:55:34.377Z,97681.88
2023-03-19T13:58:38.768Z,97683.53
2023-03-19T14:01:36.696Z,97684.91
2023-03-19T14:04:22.293Z,97689.16
2023-03-19T14:06:58.427Z,97682.84
2023-03-19T14:09:39.987Z,97690.25
2023-03-19T14:12:26.722Z,97689.03
2023-03-19T14:15:04.799Z,97694.03
2023-03-19T14:17:42.583Z,97703.78
2023-03-19T14:20:35.457Z,97714.09
2023-03-19T14:23:38.524Z,97719.16
2023-03-19T14:26:20.491Z,97715.72
2023-03-19T14:29:03.780Z,97728.34
2023-03-19T14:31:45.884Z,97728.31
2023-03-19T14:34:26.005Z,97729.00
2023-03-19T14:37:04.322Z,97724.50
2023-03-19T14:39:43.142Z,97724.31
2023-03-19T14:42:22.336Z,97731.13
2023-03-19T14:45:44.855Z,97724.94
2023-03-19T14:49:13.954Z,97725.50
2023-03-19T14:52:05.889Z,97724.53
2023-03-19T14:54:45.674Z,97726.00
2023-03-19T14:57:21.266Z,97718.69
2023-03-19T14:59:55.719Z,97721.41
2023-03-19T15:02:37.907Z,97722.44
2023-03-19T15:05:18.644Z,97713.25
2023-03-19T15:07:57.988Z,97721.72
2023-03-19T15:10:40.799Z,97715.94
2023-03-19T15:13:29.263Z,97715.44
2023-03-19T15:16:20.937Z,97715.69
2023-03-19T15:18:54.421Z,97726.22
2023-03-19T15:21:28.728Z,97717.69
2023-03-19T15:24:04.648Z,97723.66
2023-03-19T15:26:39.398Z,97724.63
2023-03-19T15:29:13.629Z,97727.09
2023-03-19T15:32:02.504Z,97732.25
2023-03-19T15:34:39.461Z,97731.38
2023-03-19T15:37:15.420Z,97730.38
2023-03-19T15:39:53.354Z,97731.28
2023-03-19T15:42:30.348Z,97735.50
2023-03-19T15:45:09.458Z,97741.16
2023-03-19T15:47:48.047Z,97740.78
2023-03-19T15:50:25.096Z,97751.31
2023-03-19T15:53:02.037Z,97764.97
2023-03-19T15:55:37.780Z,97774.38
2023-03-19T15:58:17.803Z,97779.47
2023-03-19T16:00:54.066Z,97789.59
2023-03-19T16:03:31.115Z,97801.34
2023-03-19T16:06:07.020Z,97793.31
2023-03-19T16:08:48.882Z,97799.97
2023-03-19T16:11:31.524Z,97810.56
2023-03-19T16:14:13.172Z,97812.88
2023-03-19T16:16:48.875Z,97829.16
2023-03-19T16:19:34.874Z,97816.97
2023-03-19T16:22:15.602Z,97819.34
2023-03-19T16:24:50.222Z,97819.94
2023-03-19T16:27:35.923Z,97818.69
2023-03-19T16:30:21.435Z,97822.69
2023-03-19T16:33:01.962Z,97825.03
2023-03-19T16:35:36.696Z,97826.66
2023-03-19T16:38:15.473Z,97834.13
2023-03-19T16:40:50.096Z,97841.00
2023-03-19T16:43:25.881Z,97844.38
2023-03-19T16:46:08.421Z,97850.00
2023-03-19T16:48:41.696Z,97856.50
2023-03-19T16:51:18.413Z,97855.63
2023-03-19T16:53:51.734Z,97861.47
2023-03-19T16:56:24.875Z,97858.84
2023-03-19T16:59:02.723Z,97862.19
2023-03-19T17:01:35.847Z,97868.13
2023-03-19T17:04:17.415Z,97865.72
2023-03-19T17:06:50.761Z,97869.72
2023-03-19T17:09:24.002Z,97871.25
2023-03-19T17:11:57.766Z,97871.41
2023-03-19T17:14:33.922Z,97872.38
2023-03-19T17:17:15.875Z,97883.25
2023-03-19T17:19:49.465Z,97882.09
2023-03-19T17:22:23.324Z,97883.53
2023-03-19T17:24:56.568Z,97890.19
2023-03-19T17:27:29.615Z,97890.09
2023-03-19T17:30:04.395Z,97886.75
2023-03-19T17:32:39.962Z,97895.06
2023-03-19T17:35:17.468Z,97902.69
2023-03-19T17:37:51.465Z,97891.56
2023-03-19T17:40:27.626Z,97898.94
2023-03-19T17:43:01.110Z,97903.06
2023-03-19T17:45:35.686Z,97906.25
2023-03-19T17:48:19.918Z,97914.84
2023-03-19T17:50:55.666Z,97914.41
2023-03-19T17:53:29.886Z,97908.97
2023-03-19T17:56:03.230Z,97909.41
2023-03-19T17:58:36.270Z,97905.34
2023-03-19T18:01:16.254Z,97921.25
2023-03-19T18:03:51.011Z,97928.81
2023-03-19T18:06:26.328Z,97923.97
2023-03-19T18:09:00.807Z,97929.69
2023-03-19T18:11:33.931Z,97932.75
2023-03-19T18:14:07.037Z,97926.78
2023-03-19T18:16:42.145Z,97932.44
2023-03-19T18:19:22.123Z,97925.22
2023-03-19T18:21:55.241Z,97930.88
2023-03-19T18:24:28.747Z,97932.97
2023-03-19T18:27:01.853Z,97936.28
2023-03-19T18:29:35.008Z,97945.34
2023-03-19T18:32:15.848Z,97947.63
2023-03-19T18:34:48.931Z,97949.94
2023-03-19T18:37:23.456Z,97956.47
2023-03-19T18:39:56.542Z,97955.31
2023-03-19T18:42:29.825Z,97954.50
2023-03-19T18:45:02.923Z,97967.75
2023-03-19T18:47:37.491Z,97963.69
2023-03-19T18:50:19.041Z,97965.66
2023-03-19T18:52:54.347Z,97972.22
2023-03-19T18:55:30.875Z,97969.69
2023-03-19T18:58:04.364Z,97978.16
2023-03-19T19:00:38.760Z,97979.91
2023-03-19T19:03:17.111Z,97982.28
2023-03-19T19:05:53.664Z,97982.09
2023-03-19T19:08:29.810Z,97994.03
2023-03-19T19:11:05.578Z,97997.56
2023-03-19T19:13:55.188Z,97990.47
2023-03-19T19:16:35.510Z,97998.50
2023-03-19T19:19:18.558Z,97999.13
2023-03-19T19:21:52.225Z,98001.75
2023-03-19T19:24:25.356Z,97997.19
2023-03-19T19:27:01.567Z,98001.03
2023-03-19T19:29:35.302Z,97991.63
2023-03-19T19:32:20.847Z,97994.22
2023-03-19T19:34:55.453Z,97998.56
2023-03-19T19:37:28.709Z,98006.63
2023-03-19T19:40:01.749Z,98003.91
2023-03-19T19:42:35.841Z,98008.22
2023-03-19T19:45:37.930Z,98012.91
2023-03-19T19:48:16.723Z,98016.50
2023-03-19T19:50:52.048Z,98011.28
2023-03-19T19:54:07.495Z,98029.25
2023-03-19T19:56:41.330Z,98028.47
2023-03-19T19:59:16.394Z,98031.03
2023-03-19T20:01:49.549Z,98029.81
2023-03-19T20:04:22.687Z,98034.75
2023-03-19T20:06:57.160Z,98034.94
2023-03-19T20:09:30.244Z,98040.47
2023-03-19T20:12:03.834Z,98046.81
2023-03-19T20:14:37.281Z,98047.88
2023-03-19T20:17:15.350Z,98047.19
2023-03-19T20:19:49.180Z,98051.72
2023-03-19T20:22:23.678Z,98055.50
2023-03-19T20:24:57.950Z,98047.03
2023-03-19T20:27:34.124Z,98043.44
2023-03-19T20:30:17.654Z,98041.38
2023-03-19T20:32:53.019Z,98050.63
2023-03-19T20:35:28.872Z,98052.13
2023-03-19T20:38:05.788Z,98045.25
2023-03-19T20:40:44.110Z,98055.06
2023-03-19T20:43:37.429Z,98060.41
2023-03-19T20:46:12.502Z,98057.13
2023-03-19T20:48:45.801Z,98055.50
2023-03-19T20:51:23.081Z,98055.84
2023-03-19T20:53:58.813Z,98061.28
2023-03-19T20:56:32.031Z,98056.97
2023-03-19T20:59:05.692Z,98055.81
2023-03-19T21:01:38.781Z,98061.22
2023-03-19T21:04:20.876Z,98076.28
2023-03-19T21:06:54.493Z,98074.09
2023-03-19T21:09:29.075Z,98067.50
2023-03-19T21:12:02.280Z,98075.59
2023-03-19T21:14:35.402Z,98080.78
2023-03-19T21:17:08.438Z,98074.28
2023-03-19T21:19:42.745Z,98081.06
2023-03-19T21:22:22.120Z,98081.97
2023-03-19T21:25:04.795Z,98084.69
2023-03-19T21:27:38.439Z,98081.38
2023-03-19T21:30:16.531Z,98080.88
2023-03-19T21:32:51.521Z,98080.28
2023-03-19T21:35:26.490Z,98085.00
2023-03-19T21:37:59.547Z,98081.38
2023-03-19T21:40:34.147Z,98081.19
2023-03-19T21:43:07.595Z,98084.31
2023-03-19T21:45:41.286Z,98089.63
2023-03-19T21:48:25.214Z,98083.13
2023-03-19T21:50:59.230Z,98091.28
2023-03-19T21:53:32.364Z,98085.59
2023-03-19T21:56:18.905Z,98081.88
2023-03-19T21:58:53.471Z,98086.91
2023-03-19T22:01:27.578Z,98087.66
2023-03-19T22:04:00.891Z,98091.47
2023-03-19T22:06:34.094Z,98087.56
2023-03-19T22:09:07.543Z,98093.75
2023-03-19T22:11:42.605Z,98091.22
2023-03-19T22:14:19.095Z,98093.75
2023-03-19T22:16:55.472Z,98086.69
2023-03-19T22:19:29.170Z,98093.53
2023-03-19T22:22:02.274Z,98098.94
2023-03-19T22:24:35.290Z,98090.31
2023-03-19T22:27:16.929Z,98098.66
2023-03-19T22:29:50.244Z,98090.03
2023-03-19T22:32:23.259Z,98096.81
2023-03-19T22:34:56.418Z,98093.94
2023-03-19T22:37:31.576Z,98099.25
2023-03-19T22:40:05.135Z,98097.69
2023-03-19T22:42:39.648Z,98099.56
2023-03-19T22:45:27.038Z,98098.66
2023-03-19T22:48:01.754Z,98107.28
2023-03-19T22:50:34.837Z,98102.38
2023-03-19T22:53:22.271Z,98106.81
2023-03-19T22:55:55.545Z,98106.81
2023-03-19T22:58:30.427Z,98117.88
2023-03-19T23:01:03.569Z,98109.28
2023-03-19T23:03:36.996Z,98112.59
2023-03-19T23:06:29.235Z,98109.28
2023-03-19T23:09:03.451Z,98117.00
2023-03-19T23:11:39.369Z,98110.34
2023-03-19T23:14:28.033Z,98111.03
2023-03-19T23:17:07.340Z,98110.84
2023-03-19T23:19:40.385Z,98112.22
2023-03-19T23:22:17.388Z,98117.91
2023-03-19T23:24:50.624Z,98108.38
2023-03-19T23:27:26.640Z,98116.13
2023-03-19T23:30:01.130Z,98109.16
2023-03-19T23:32:34.252Z,98115.84
2023-03-19T23:35:16.207Z,98115.84
2023-03-19T23:37:49.405Z,98111.13
2023-03-19T23:40:24.520Z,98120.66
2023-03-19T23:42:59.127Z,98117.13
2023-03-19T23:45:39.993Z,98120.28
2023-03-19T23:48:16.814Z,98126.34
2023-03-19T23:50:50.607Z,98128.31
2023-03-19T23:53:27.183Z,98126.72
2023-03-19T23:56:03.463Z,98137.94
2023-03-19T23:58:42.885Z,98135.88
